<?xml version="1.0" encoding="utf-8"?>
<gpx xmlns:xsi="http://www.w3.org/2001/XMLSchema-instance" xmlns:xsd="http://www.w3.org/2001/XMLSchema" version="1.1" creator="Shapelink.com" xmlns="http://www.topografix.com/GPX/1/1" xmlns:gpxtpx="http://www.garmin.com/xmlschemas/TrackPointExtension/v1">
  <metadata>
    <name>Løping 1.09 km, 2012-07-17</name>
    <desc></desc>
    <author><name>Mikael Blom</name></author> 
    <time>2012-07-17T10:27:00Z</time>
  </metadata>
  <trk>
    <name>Løping 1.09 km, 2012-07-17</name>
    <trkseg>
      <trkpt lat="59.9921807" lon="17.7376308">
        <ele>66.949</ele>
        <time>2012-07-17T10:27:00Z</time>
      </trkpt>
      <trkpt lat="59.9921141" lon="17.7376532">
        <ele>68.3909</ele>
        <time>2012-07-17T10:27:02Z</time>
      </trkpt>
      <trkpt lat="59.9919427" lon="17.7376581">
        <ele>62.6229</ele>
        <time>2012-07-17T10:27:07Z</time>
      </trkpt>
      <trkpt lat="59.9918196" lon="17.7377043">
        <ele>63.1036</ele>
        <time>2012-07-17T10:27:11Z</time>
      </trkpt>
      <trkpt lat="59.9916626" lon="17.7376947">
        <ele>58.7777</ele>
        <time>2012-07-17T10:27:16Z</time>
      </trkpt>
      <trkpt lat="59.9915083" lon="17.7377038">
        <ele>54.9324</ele>
        <time>2012-07-17T10:27:21Z</time>
      </trkpt>
      <trkpt lat="59.9913296" lon="17.7377221">
        <ele>52.0486</ele>
        <time>2012-07-17T10:27:26Z</time>
      </trkpt>
      <trkpt lat="59.9911762" lon="17.7376926">
        <ele>51.5679</ele>
        <time>2012-07-17T10:27:31Z</time>
      </trkpt>
      <trkpt lat="59.9910566" lon="17.7377656">
        <ele>54.9324</ele>
        <time>2012-07-17T10:27:35Z</time>
      </trkpt>
      <trkpt lat="59.9908737" lon="17.7378692">
        <ele>53.4905</ele>
        <time>2012-07-17T10:27:41Z</time>
      </trkpt>
      <trkpt lat="59.9907316" lon="17.7379443">
        <ele>50.6066</ele>
        <time>2012-07-17T10:27:45Z</time>
      </trkpt>
      <trkpt lat="59.9905847" lon="17.7380593">
        <ele>48.684</ele>
        <time>2012-07-17T10:27:50Z</time>
      </trkpt>
      <trkpt lat="59.9904632" lon="17.7381238">
        <ele>51.0872</ele>
        <time>2012-07-17T10:27:55Z</time>
      </trkpt>
      <trkpt lat="59.9903224" lon="17.7382526">
        <ele>54.9324</ele>
        <time>2012-07-17T10:28:01Z</time>
      </trkpt>
      <trkpt lat="59.9901562" lon="17.7383091">
        <ele>54.4518</ele>
        <time>2012-07-17T10:28:07Z</time>
      </trkpt>
      <trkpt lat="59.9899837" lon="17.7383591">
        <ele>53.4905</ele>
        <time>2012-07-17T10:28:13Z</time>
      </trkpt>
      <trkpt lat="59.9898136" lon="17.7383723">
        <ele>50.126</ele>
        <time>2012-07-17T10:28:19Z</time>
      </trkpt>
      <trkpt lat="59.9897098" lon="17.7384311">
        <ele>51.0872</ele>
        <time>2012-07-17T10:28:23Z</time>
      </trkpt>
      <trkpt lat="59.989566" lon="17.7385004">
        <ele>53.0098</ele>
        <time>2012-07-17T10:28:28Z</time>
      </trkpt>
      <trkpt lat="59.9894362" lon="17.738531">
        <ele>51.0872</ele>
        <time>2012-07-17T10:28:33Z</time>
      </trkpt>
      <trkpt lat="59.9893038" lon="17.7386243">
        <ele>54.9324</ele>
        <time>2012-07-17T10:28:38Z</time>
      </trkpt>
      <trkpt lat="59.9892011" lon="17.7387052">
        <ele>56.3745</ele>
        <time>2012-07-17T10:28:42Z</time>
      </trkpt>
      <trkpt lat="59.9890481" lon="17.7387947">
        <ele>60.7003</ele>
        <time>2012-07-17T10:28:47Z</time>
      </trkpt>
      <trkpt lat="59.9889279" lon="17.7388571">
        <ele>57.3358</ele>
        <time>2012-07-17T10:28:52Z</time>
      </trkpt>
      <trkpt lat="59.9888269" lon="17.7389307">
        <ele>54.4518</ele>
        <time>2012-07-17T10:28:57Z</time>
      </trkpt>
      <trkpt lat="59.98871" lon="17.7390181">
        <ele>51.5679</ele>
        <time>2012-07-17T10:29:02Z</time>
      </trkpt>
      <trkpt lat="59.9885493" lon="17.7390773">
        <ele>46.7612</ele>
        <time>2012-07-17T10:29:07Z</time>
      </trkpt>
      <trkpt lat="59.9884135" lon="17.7391195">
        <ele>43.8773</ele>
        <time>2012-07-17T10:29:12Z</time>
      </trkpt>
      <trkpt lat="59.9883025" lon="17.7391819">
        <ele>44.8386</ele>
        <time>2012-07-17T10:29:16Z</time>
      </trkpt>
      <trkpt lat="59.9881844" lon="17.739251">
        <ele>47.2418</ele>
        <time>2012-07-17T10:29:20Z</time>
      </trkpt>
      <trkpt lat="59.9880298" lon="17.7392668">
        <ele>45.7999</ele>
        <time>2012-07-17T10:29:25Z</time>
      </trkpt>
      <trkpt lat="59.9878749" lon="17.7392694">
        <ele>42.4354</ele>
        <time>2012-07-17T10:29:31Z</time>
      </trkpt>
      <trkpt lat="59.9877498" lon="17.7392837">
        <ele>40.5128</ele>
        <time>2012-07-17T10:29:35Z</time>
      </trkpt>
      <trkpt lat="59.9875708" lon="17.7393002">
        <ele>40.0321</ele>
        <time>2012-07-17T10:29:41Z</time>
      </trkpt>
      <trkpt lat="59.9874383" lon="17.7393356">
        <ele>39.0707</ele>
        <time>2012-07-17T10:29:45Z</time>
      </trkpt>
      <trkpt lat="59.9872915" lon="17.7393163">
        <ele>40.0321</ele>
        <time>2012-07-17T10:29:50Z</time>
      </trkpt>
      <trkpt lat="59.9871297" lon="17.7393094">
        <ele>39.5513</ele>
        <time>2012-07-17T10:29:55Z</time>
      </trkpt>
      <trkpt lat="59.9869612" lon="17.7392917">
        <ele>44.8386</ele>
        <time>2012-07-17T10:30:01Z</time>
      </trkpt>
      <trkpt lat="59.9868303" lon="17.7391966">
        <ele>45.7999</ele>
        <time>2012-07-17T10:30:06Z</time>
      </trkpt>
      <trkpt lat="59.9866995" lon="17.7390953">
        <ele>47.7225</ele>
        <time>2012-07-17T10:30:11Z</time>
      </trkpt>
      <trkpt lat="59.9865858" lon="17.7389744">
        <ele>48.684</ele>
        <time>2012-07-17T10:30:15Z</time>
      </trkpt>
      <trkpt lat="59.9864553" lon="17.738889">
        <ele>49.1646</ele>
        <time>2012-07-17T10:30:19Z</time>
      </trkpt>
      <trkpt lat="59.986315" lon="17.738798">
        <ele>52.0486</ele>
        <time>2012-07-17T10:30:24Z</time>
      </trkpt>
      <trkpt lat="59.9861535" lon="17.7386814">
        <ele>53.9712</ele>
        <time>2012-07-17T10:30:30Z</time>
      </trkpt>
      <trkpt lat="59.9860027" lon="17.7385738">
        <ele>52.5292</ele>
        <time>2012-07-17T10:30:35Z</time>
      </trkpt>
      <trkpt lat="59.9858589" lon="17.7385006">
        <ele>54.9324</ele>
        <time>2012-07-17T10:30:40Z</time>
      </trkpt>
      <trkpt lat="59.985722" lon="17.7384303">
        <ele>53.9712</ele>
        <time>2012-07-17T10:30:44Z</time>
      </trkpt>
      <trkpt lat="59.9855401" lon="17.738387">
        <ele>53.0098</ele>
        <time>2012-07-17T10:30:50Z</time>
      </trkpt>
      <trkpt lat="59.9854506" lon="17.7383782">
        <ele>51.5679</ele>
        <time>2012-07-17T10:30:53Z</time>
      </trkpt>
      <trkpt lat="59.9852986" lon="17.7383319">
        <ele>53.4905</ele>
        <time>2012-07-17T10:30:58Z</time>
      </trkpt>
      <trkpt lat="59.9850988" lon="17.7382759">
        <ele>52.5292</ele>
        <time>2012-07-17T10:31:05Z</time>
      </trkpt>
      <trkpt lat="59.984989" lon="17.7382551">
        <ele>53.4905</ele>
        <time>2012-07-17T10:31:09Z</time>
      </trkpt>
      <trkpt lat="59.9848522" lon="17.7382125">
        <ele>54.4518</ele>
        <time>2012-07-17T10:31:14Z</time>
      </trkpt>
      <trkpt lat="59.9847073" lon="17.7381682">
        <ele>52.0486</ele>
        <time>2012-07-17T10:31:19Z</time>
      </trkpt>
      <trkpt lat="59.9845506" lon="17.7381483">
        <ele>50.6066</ele>
        <time>2012-07-17T10:31:24Z</time>
      </trkpt>
      <trkpt lat="59.9843559" lon="17.7381256">
        <ele>52.0486</ele>
        <time>2012-07-17T10:31:29Z</time>
      </trkpt>
      <trkpt lat="59.9842327" lon="17.7380716">
        <ele>52.0486</ele>
        <time>2012-07-17T10:31:33Z</time>
      </trkpt>
      <trkpt lat="59.9841103" lon="17.738023">
        <ele>50.126</ele>
        <time>2012-07-17T10:31:38Z</time>
      </trkpt>
      <trkpt lat="59.9840032" lon="17.7380133">
        <ele>48.684</ele>
        <time>2012-07-17T10:31:42Z</time>
      </trkpt>
      <trkpt lat="59.9838497" lon="17.7380427">
        <ele>50.126</ele>
        <time>2012-07-17T10:31:48Z</time>
      </trkpt>
      <trkpt lat="59.9836819" lon="17.7380847">
        <ele>51.5679</ele>
        <time>2012-07-17T10:31:53Z</time>
      </trkpt>
      <trkpt lat="59.9835106" lon="17.7381493">
        <ele>52.5292</ele>
        <time>2012-07-17T10:31:57Z</time>
      </trkpt>
      <trkpt lat="59.9833764" lon="17.7381762">
        <ele>53.0098</ele>
        <time>2012-07-17T10:32:01Z</time>
      </trkpt>
      <trkpt lat="59.9832704" lon="17.7381454">
        <ele>50.6066</ele>
        <time>2012-07-17T10:32:05Z</time>
      </trkpt>
      <trkpt lat="59.9831133" lon="17.7382049">
        <ele>48.684</ele>
        <time>2012-07-17T10:32:10Z</time>
      </trkpt>
      <trkpt lat="59.9829965" lon="17.7382008">
        <ele>47.2418</ele>
        <time>2012-07-17T10:32:14Z</time>
      </trkpt>
      <trkpt lat="59.9828745" lon="17.7382024">
        <ele>51.0872</ele>
        <time>2012-07-17T10:32:20Z</time>
      </trkpt>
      <trkpt lat="59.9827272" lon="17.7381756">
        <ele>52.0486</ele>
        <time>2012-07-17T10:32:25Z</time>
      </trkpt>
      <trkpt lat="59.9826419" lon="17.7381561">
        <ele>51.0872</ele>
        <time>2012-07-17T10:32:28Z</time>
      </trkpt>
    </trkseg>
  </trk>
</gpx>